Time;durP1;ratioP1;P1;durP2;ratioP2;P2;SDS_P1;SDS_P2;PMS_P1;PMS_P2;Temp;Humidity;BMP_temperature;BMP_pressure;BME280_temperature;BME280_humidity;BME280_pressure;Samples;Min_cycle;Max_cycle;Signal;HPM_P1;HPM_P2
2021/12/27 00:01:13;;;;;;;14.20;6.77;;;;;;;-5.61;70.23;101098.09;5050680;28;20229;-70
2021/12/27 00:03:38;;;;;;;13.30;7.20;;;;;;;-5.66;69.80;101081.00;5050716;28;20692;-70
2021/12/27 00:06:09;;;;;;;15.07;8.00;;;;;;;-5.66;70.46;101083.50;5050697;28;20444;-70
2021/12/27 00:08:35;;;;;;;14.90;7.73;;;;;;;-5.68;70.34;101080.00;5050680;28;20207;-70
2021/12/27 00:11:00;;;;;;;15.93;7.80;;;;;;;-5.70;70.22;101069.03;5050674;28;21023;-70
2021/12/27 00:13:26;;;;;;;17.03;7.73;;;;;;;-5.67;70.39;101076.78;5049675;28;20189;-70
2021/12/27 00:15:51;;;;;;;17.27;8.00;;;;;;;-5.71;70.51;101065.66;5050737;28;20275;-70
2021/12/27 00:18:16;;;;;;;18.00;8.30;;;;;;;-5.65;70.01;101062.81;5050296;28;20256;-70
2021/12/27 00:20:42;;;;;;;16.93;7.73;;;;;;;-5.62;70.53;101063.09;5050571;28;20689;-70
2021/12/27 00:23:07;;;;;;;20.33;8.80;;;;;;;-5.54;70.22;101062.09;5049659;28;20252;-70
2021/12/27 00:25:32;;;;;;;20.73;8.93;;;;;;;-5.48;70.34;101055.16;5050301;28;20217;-70
2021/12/27 00:27:58;;;;;;;19.97;8.13;;;;;;;-5.48;70.08;101052.66;5050145;28;20201;-70
2021/12/27 00:30:23;;;;;;;14.33;8.27;;;;;;;-5.41;70.39;101052.44;5050306;28;20208;-70
2021/12/27 00:32:50;;;;;;;17.40;8.20;;;;;;;-5.48;70.92;101052.66;5050157;28;20173;-70
2021/12/27 00:35:22;;;;;;;16.30;8.67;;;;;;;-5.48;70.99;101047.69;5050124;28;20212;-70
2021/12/27 00:37:47;;;;;;;13.27;7.73;;;;;;;-5.49;71.25;101053.38;5050165;28;20463;-70
2021/12/27 00:40:13;;;;;;;19.23;9.33;;;;;;;-5.47;70.92;101037.84;5049832;28;20590;-70
2021/12/27 00:42:39;;;;;;;18.43;9.83;;;;;;;-5.45;71.25;101028.84;5050170;28;20569;-70
2021/12/27 00:45:05;;;;;;;16.97;9.20;;;;;;;-5.42;71.73;101026.63;5050082;28;20258;-70
2021/12/27 00:47:31;;;;;;;21.30;10.03;;;;;;;-5.38;71.02;101017.78;5050148;28;20201;-70
2021/12/27 00:49:56;;;;;;;16.33;8.63;;;;;;;-5.33;71.09;101022.41;5049737;28;20436;-70
2021/12/27 00:52:22;;;;;;;19.40;9.83;;;;;;;-5.36;71.32;101013.78;5050312;28;20197;-70
2021/12/27 00:54:47;;;;;;;19.10;9.43;;;;;;;-5.28;71.83;101022.78;5050204;28;20189;-70
2021/12/27 00:57:12;;;;;;;21.03;10.30;;;;;;;-5.22;71.55;101015.81;5050153;28;20186;-70
2021/12/27 00:59:38;;;;;;;22.00;10.60;;;;;;;-5.21;71.31;101010.09;5050216;28;20547;-70
2021/12/27 01:02:03;;;;;;;24.87;11.27;;;;;;;-5.22;71.48;101018.28;5049790;28;20623;-70
2021/12/27 01:04:28;;;;;;;18.97;9.60;;;;;;;-5.23;71.81;101011.56;5049749;28;20209;-71
2021/12/27 01:06:53;;;;;;;22.57;11.13;;;;;;;-5.21;71.17;101017.56;5049996;28;20276;-70
2021/12/27 01:09:33;;;;;;;22.67;10.20;;;;;;;-5.20;71.72;101016.81;5049650;28;20219;-70
2021/12/27 01:14:55;;;;;;;23.17;11.00;;;;;;;-5.13;71.05;101009.09;5049992;28;20431;-70
2021/12/27 01:17:21;;;;;;;24.67;9.93;;;;;;;-5.12;72.21;101003.38;5049802;28;20431;-70
2021/12/27 01:19:46;;;;;;;19.00;10.17;;;;;;;-5.12;71.54;101003.38;5049416;28;20467;-70
2021/12/27 01:22:11;;;;;;;22.20;11.00;;;;;;;-5.08;71.53;101010.34;5049678;28;20213;-70
2021/12/27 01:24:37;;;;;;;23.90;10.53;;;;;;;-5.07;72.09;101007.13;5064971;28;20576;-70
2021/12/27 01:27:02;;;;;;;21.50;10.33;;;;;;;-5.05;72.15;101015.59;5049752;28;20192;-70
2021/12/27 01:29:28;;;;;;;24.63;11.57;;;;;;;-5.03;72.14;101019.97;5049135;28;20181;-70
2021/12/27 01:31:53;;;;;;;25.23;11.83;;;;;;;-4.98;71.90;101012.88;5049438;28;20236;-70
2021/12/27 01:34:19;;;;;;;21.93;10.70;;;;;;;-4.97;71.73;101007.13;5048820;28;20188;-70
2021/12/27 01:36:44;;;;;;;24.67;11.10;;;;;;;-4.96;72.17;101013.84;5048391;28;20201;-70
2021/12/27 01:39:09;;;;;;;22.63;11.03;;;;;;;-4.94;72.45;101005.75;5049415;28;20220;-70
2021/12/27 01:41:35;;;;;;;23.00;10.83;;;;;;;-4.90;72.23;101001.88;5049419;28;20744;-70
2021/12/27 01:44:00;;;;;;;26.10;11.90;;;;;;;-4.91;72.80;101007.59;5048950;28;20255;-70
2021/12/27 01:46:28;;;;;;;22.13;10.63;;;;;;;-4.95;72.66;101001.50;5047746;28;20189;-70
2021/12/27 01:48:55;;;;;;;21.97;10.87;;;;;;;-4.87;72.35;100994.63;5048721;28;20182;-70
2021/12/27 01:51:26;;;;;;;24.43;11.77;;;;;;;-4.82;72.40;100993.38;5049129;28;20460;-70
2021/12/27 01:53:52;;;;;;;22.70;11.43;;;;;;;-4.79;72.05;100996.16;5049254;28;20492;-70
2021/12/27 01:56:20;;;;;;;25.80;11.83;;;;;;;-4.80;73.16;100986.88;5049367;28;20416;-70
2021/12/27 01:58:47;;;;;;;25.87;11.60;;;;;;;-4.84;73.16;100990.75;5048613;28;20201;-70
2021/12/27 02:01:13;;;;;;;26.37;12.33;;;;;;;-4.82;72.59;100978.41;5048908;28;20884;-70
2021/12/27 02:03:41;;;;;;;23.97;12.53;;;;;;;-4.85;72.85;100980.66;5044649;28;20472;-70
2021/12/27 02:06:07;;;;;;;27.37;11.97;;;;;;;-4.83;72.12;100975.03;5039211;28;20574;-70
2021/12/27 02:08:35;;;;;;;23.67;11.43;;;;;;;-4.80;71.95;100970.28;5048716;28;20436;-70
2021/12/27 02:11:01;;;;;;;23.70;12.10;;;;;;;-4.79;72.28;100968.69;5048600;28;20547;-70
2021/12/27 02:13:26;;;;;;;25.90;12.63;;;;;;;-4.77;73.08;100972.16;5048827;28;20543;-70
2021/12/27 02:15:51;;;;;;;27.13;12.87;;;;;;;-4.76;72.48;100972.28;5048420;28;20225;-70
2021/12/27 02:18:17;;;;;;;31.30;13.00;;;;;;;-4.79;72.54;100961.19;5048605;28;20189;-70
2021/12/27 02:20:44;;;;;;;28.87;12.40;;;;;;;-4.78;72.86;100960.44;5048289;28;20282;-70
2021/12/27 02:23:15;;;;;;;30.43;12.73;;;;;;;-4.78;72.74;100957.94;5048721;28;20195;-70
2021/12/27 02:25:42;;;;;;;25.47;13.07;;;;;;;-4.76;72.21;100957.31;5049017;28;20438;-70
2021/12/27 02:28:09;;;;;;;26.00;12.20;;;;;;;-4.79;72.42;100947.06;5047052;28;21044;-70
2021/12/27 02:30:36;;;;;;;27.80;13.13;;;;;;;-4.85;72.36;100939.09;5062935;28;20547;-70
2021/12/27 02:33:07;;;;;;;26.00;13.23;;;;;;;-4.89;72.33;100932.09;5041260;28;20452;-70
2021/12/27 02:35:38;;;;;;;26.50;13.30;;;;;;;-4.87;72.81;100919.75;5048439;28;20463;-70
2021/12/27 02:38:04;;;;;;;27.23;13.80;;;;;;;-4.87;72.95;100913.16;5048348;28;20507;-70
2021/12/27 02:40:31;;;;;;;25.30;12.57;;;;;;;-4.88;73.15;100916.38;5048259;28;20493;-70
2021/12/27 02:43:08;;;;;;;29.10;13.73;;;;;;;-4.90;73.21;100917.00;5048208;28;20444;-70
2021/12/27 02:45:38;;;;;;;26.33;13.10;;;;;;;-4.90;73.00;100920.38;5048791;28;20450;-70
2021/12/27 02:48:05;;;;;;;27.57;13.40;;;;;;;-4.95;72.95;100916.66;5051354;28;20526;-70
2021/12/27 02:50:31;;;;;;;29.23;13.43;;;;;;;-4.88;73.38;100913.88;5052255;28;20545;-70
2021/12/27 02:52:57;;;;;;;26.17;12.33;;;;;;;-4.88;72.93;100908.03;5050953;28;20461;-70
2021/12/27 02:55:24;;;;;;;27.53;12.70;;;;;;;-4.88;73.21;100913.88;5052294;28;20444;-70
2021/12/27 02:57:50;;;;;;;25.23;12.40;;;;;;;-4.80;73.24;100909.50;5051823;28;20451;-70
2021/12/27 03:00:27;;;;;;;27.17;13.37;;;;;;;-4.82;73.17;100908.53;5052030;28;20444;-70
2021/12/27 03:02:53;;;;;;;27.90;13.13;;;;;;;-4.78;73.52;100905.53;5050915;28;20440;-70
2021/12/27 03:05:20;;;;;;;30.17;13.63;;;;;;;-4.78;73.25;100913.84;5051055;28;20439;-70
2021/12/27 03:07:47;;;;;;;29.07;13.00;;;;;;;-4.75;73.36;100913.25;5051838;28;20476;-70
2021/12/27 03:10:15;;;;;;;32.13;13.93;;;;;;;-4.70;73.71;100917.84;5051577;28;20478;-70
2021/12/27 03:12:43;;;;;;;28.90;14.30;;;;;;;-4.71;73.46;100897.75;5051642;28;20967;-70
2021/12/27 03:15:10;;;;;;;25.67;13.23;;;;;;;-4.66;73.96;100894.00;5051983;28;20424;-70
2021/12/27 03:17:36;;;;;;;30.07;13.20;;;;;;;-4.66;73.54;100892.38;5051692;28;20440;-70
2021/12/27 03:20:06;;;;;;;26.50;14.00;;;;;;;-4.69;73.99;100886.28;5051467;28;21007;-69
2021/12/27 03:22:32;;;;;;;29.10;14.07;;;;;;;-4.63;74.25;100880.16;5051787;28;20189;-70
2021/12/27 03:24:58;;;;;;;25.67;12.90;;;;;;;-4.67;74.02;100869.78;5051684;28;20478;-70
2021/12/27 03:27:23;;;;;;;29.20;14.17;;;;;;;-4.63;74.71;100874.28;5041995;28;20194;-70
2021/12/27 03:29:49;;;;;;;27.40;14.27;;;;;;;-4.58;74.65;100876.38;5050918;28;20201;-70
2021/12/27 03:32:15;;;;;;;30.33;14.23;;;;;;;-4.55;73.83;100878.25;5051535;28;20610;-70
2021/12/27 03:34:54;;;;;;;30.67;14.03;;;;;;;-4.55;74.25;100879.09;5051705;28;20173;-70
2021/12/27 03:37:21;;;;;;;27.00;13.80;;;;;;;-4.52;73.84;100879.34;5051544;28;20432;-70
2021/12/27 03:39:46;;;;;;;26.10;13.03;;;;;;;-4.51;74.08;100878.59;5051163;28;21139;-70
2021/12/27 03:42:12;;;;;;;33.33;14.27;;;;;;;-4.52;73.71;100871.84;5051332;28;20460;-70
2021/12/27 03:44:37;;;;;;;28.50;14.57;;;;;;;-4.53;74.91;100861.75;5051155;28;20249;-70
2021/12/27 03:47:02;;;;;;;28.60;14.00;;;;;;;-4.51;74.55;100868.59;5050772;28;20281;-70
2021/12/27 03:49:29;;;;;;;32.73;14.67;;;;;;;-4.44;74.00;100870.84;5051177;28;20349;-70
2021/12/27 03:51:54;;;;;;;27.03;13.83;;;;;;;-4.44;73.94;100875.84;5051191;28;20289;-70
2021/12/27 03:54:19;;;;;;;31.77;14.73;;;;;;;-4.42;73.75;100866.81;5049848;28;20586;-70
2021/12/27 03:56:45;;;;;;;27.90;14.13;;;;;;;-4.38;73.39;100871.31;5051015;28;21001;-70
2021/12/27 03:59:22;;;;;;;31.03;14.87;;;;;;;-4.39;74.04;100866.19;5049733;28;20714;-70
2021/12/27 04:01:49;;;;;;;28.73;14.70;;;;;;;-4.41;74.07;100866.09;5051527;28;20217;-70
2021/12/27 04:04:14;;;;;;;27.53;15.13;;;;;;;-4.40;74.13;100856.97;5050936;28;21052;-70
2021/12/27 04:06:39;;;;;;;30.83;14.60;;;;;;;-4.37;73.34;100858.06;5066311;28;20531;-70
2021/12/27 04:09:05;;;;;;;32.10;14.73;;;;;;;-4.32;73.88;100856.78;5050931;28;20178;-70
2021/12/27 04:11:31;;;;;;;31.57;14.57;;;;;;;-4.25;73.39;100854.00;5065880;28;20634;-70
2021/12/27 04:13:58;;;;;;;30.07;15.27;;;;;;;-4.27;73.54;100867.16;5050922;28;20200;-70
2021/12/27 04:16:23;;;;;;;31.00;15.23;;;;;;;-4.27;72.80;100865.53;5050930;28;20901;-70
2021/12/27 04:18:49;;;;;;;34.23;15.67;;;;;;;-4.25;73.41;100863.13;5065640;28;20476;-70
2021/12/27 04:21:14;;;;;;;36.80;16.40;;;;;;;-4.22;73.14;100860.88;5050809;28;20288;-70
2021/12/27 04:23:39;;;;;;;36.07;16.47;;;;;;;-4.28;72.71;100856.28;5050310;28;20564;-70
2021/12/27 04:26:05;;;;;;;34.73;16.17;;;;;;;-4.22;73.17;100856.75;5050761;28;20204;-70
2021/12/27 04:28:31;;;;;;;28.50;14.97;;;;;;;-4.25;74.02;100844.03;5050133;28;20194;-70
2021/12/27 04:30:56;;;;;;;28.97;15.03;;;;;;;-4.18;73.86;100848.72;5050189;28;20595;-70
2021/12/27 04:33:22;;;;;;;35.83;16.23;;;;;;;-4.18;73.67;100832.88;5050197;28;20443;-70
2021/12/27 04:35:48;;;;;;;34.30;15.57;;;;;;;-4.20;74.60;100826.88;5050384;28;20608;-69
2021/12/27 04:38:15;;;;;;;34.43;16.40;;;;;;;-4.24;74.35;100822.41;5050079;28;20192;-70
2021/12/27 04:40:43;;;;;;;33.73;16.13;;;;;;;-4.19;74.08;100816.16;5050060;28;20209;-70
2021/12/27 04:43:12;;;;;;;31.70;14.83;;;;;;;-4.23;73.90;100815.00;5049855;28;20464;-70
2021/12/27 04:45:38;;;;;;;34.50;15.73;;;;;;;-4.24;73.85;100820.78;5048794;28;20447;-70
2021/12/27 04:48:03;;;;;;;30.13;14.53;;;;;;;-4.25;74.46;100816.53;5049955;28;20436;-70
2021/12/27 04:50:29;;;;;;;33.00;15.70;;;;;;;-4.24;74.49;100820.78;5050281;28;20463;-70
2021/12/27 04:52:55;;;;;;;30.27;14.43;;;;;;;-4.22;74.45;100826.78;5065721;28;20204;-70
2021/12/27 04:55:25;;;;;;;29.23;15.40;;;;;;;-4.20;75.29;100819.38;5049951;28;20182;-70
2021/12/27 04:57:51;;;;;;;32.47;16.03;;;;;;;-4.20;75.17;100816.88;5050076;28;20281;-69
2021/12/27 05:00:16;;;;;;;34.47;16.00;;;;;;;-4.19;75.74;100821.16;5049459;28;20617;-70
2021/12/27 05:02:42;;;;;;;30.97;13.37;;;;;;;-4.21;75.90;100821.03;5049915;28;20184;-70
2021/12/27 05:05:07;;;;;;;29.93;14.77;;;;;;;-4.20;75.23;100812.75;5049962;28;20202;-70
2021/12/27 05:07:33;;;;;;;30.30;16.00;;;;;;;-4.15;75.59;100813.97;5049306;28;20251;-70
2021/12/27 05:09:58;;;;;;;29.93;15.93;;;;;;;-4.22;74.65;100805.91;5048907;28;20198;-70
2021/12/27 05:12:24;;;;;;;35.37;16.30;;;;;;;-4.17;75.80;100803.00;5049741;28;20192;-70
2021/12/27 05:14:49;;;;;;;31.40;15.53;;;;;;;-4.15;75.87;100796.50;5050102;28;20185;-70
2021/12/27 05:17:14;;;;;;;32.33;16.80;;;;;;;-4.12;75.32;100801.72;5050324;28;20654;-70
2021/12/27 05:19:40;;;;;;;33.13;17.30;;;;;;;-4.08;75.66;100797.81;5049758;28;20191;-70
2021/12/27 05:22:05;;;;;;;32.83;16.30;;;;;;;-4.11;76.25;100790.09;5049903;28;20217;-70
2021/12/27 05:24:31;;;;;;;32.47;15.50;;;;;;;-4.09;75.73;100781.09;5049665;28;20220;-70
2021/12/27 05:26:56;;;;;;;31.33;15.00;;;;;;;-4.03;75.47;100779.94;5049881;28;20243;-70
2021/12/27 05:29:22;;;;;;;32.03;15.57;;;;;;;-4.02;75.43;100775.78;5049564;28;20203;-70
2021/12/27 05:31:48;;;;;;;32.97;16.03;;;;;;;-4.03;75.27;100779.03;5049580;28;20266;-70
2021/12/27 05:34:14;;;;;;;30.23;15.83;;;;;;;-4.04;75.38;100783.19;5049778;28;20894;-70
2021/12/27 05:36:42;;;;;;;32.07;15.63;;;;;;;-4.05;74.98;100785.56;5049592;28;20193;-69
2021/12/27 05:39:09;;;;;;;34.40;15.83;;;;;;;-3.98;74.81;100783.63;5064817;28;20447;-70
2021/12/27 05:41:34;;;;;;;36.60;16.87;;;;;;;-3.96;74.92;100783.75;5049422;28;20448;-70
2021/12/27 05:43:59;;;;;;;29.80;15.30;;;;;;;-3.92;74.39;100780.72;5049576;28;21031;-70
2021/12/27 05:46:25;;;;;;;36.03;17.43;;;;;;;-3.92;75.01;100783.22;5064882;28;20190;-70
2021/12/27 05:48:50;;;;;;;34.20;15.87;;;;;;;-3.90;75.28;100770.09;5049348;28;20201;-70
2021/12/27 05:51:15;;;;;;;30.70;15.40;;;;;;;-3.90;74.89;100766.72;5049511;28;20212;-70
2021/12/27 05:53:42;;;;;;;33.40;16.60;;;;;;;-3.90;74.30;100771.72;5064856;28;20189;-70
2021/12/27 05:56:08;;;;;;;31.60;15.00;;;;;;;-3.85;74.78;100760.41;5049337;28;20714;-70
2021/12/27 05:58:33;;;;;;;34.60;17.13;;;;;;;-3.85;74.89;100760.41;5047900;28;20521;-70
2021/12/27 06:00:59;;;;;;;34.13;16.27;;;;;;;-3.82;74.96;100758.16;5049225;28;20225;-70
2021/12/27 06:03:24;;;;;;;32.03;16.87;;;;;;;-3.83;74.02;100764.78;5064797;28;20210;-70
2021/12/27 06:05:49;;;;;;;37.47;16.83;;;;;;;-3.78;74.42;100750.13;5049289;28;20191;-70
2021/12/27 06:08:15;;;;;;;32.00;16.20;;;;;;;-3.84;74.61;100748.03;5049263;28;20899;-70
2021/12/27 06:10:40;;;;;;;37.67;16.70;;;;;;;-3.78;74.99;100745.13;5049232;28;20848;-70
2021/12/27 06:13:05;;;;;;;35.20;17.83;;;;;;;-3.77;74.89;100741.84;5049255;28;20745;-70
2021/12/27 06:15:31;;;;;;;35.27;16.67;;;;;;;-3.79;74.34;100731.75;5049223;28;20208;-70
2021/12/27 06:17:56;;;;;;;32.20;16.10;;;;;;;-3.79;73.85;100739.25;5047815;28;20213;-70
2021/12/27 06:20:22;;;;;;;36.47;16.97;;;;;;;-3.76;74.73;100741.09;5049153;28;20208;-70
2021/12/27 06:22:56;;;;;;;35.57;17.20;;;;;;;-3.76;74.97;100741.09;5051840;28;20674;-70
2021/12/27 06:25:21;;;;;;;35.07;15.97;;;;;;;-3.76;74.97;100731.09;5051945;28;20212;-70
2021/12/27 06:27:47;;;;;;;30.80;16.27;;;;;;;-3.77;74.96;100732.69;5051957;28;20940;-70
2021/12/27 06:30:15;;;;;;;37.33;17.43;;;;;;;-3.73;74.74;100736.31;5053495;28;20313;-70
2021/12/27 06:32:40;;;;;;;37.40;16.90;;;;;;;-3.73;74.78;100733.81;5053358;28;20170;-70
2021/12/27 06:35:07;;;;;;;36.53;17.27;;;;;;;-3.73;74.63;100731.31;5053117;28;20448;-70
2021/12/27 06:37:33;;;;;;;36.17;17.27;;;;;;;-3.71;75.01;100722.28;5052878;28;20178;-70
2021/12/27 06:39:59;;;;;;;37.47;17.57;;;;;;;-3.67;75.12;100721.75;5051454;28;20451;-70
2021/12/27 06:42:24;;;;;;;35.00;17.90;;;;;;;-3.68;76.01;100723.38;5052916;28;20182;-70
2021/12/27 06:44:50;;;;;;;38.80;17.83;;;;;;;-3.70;75.43;100724.91;5052936;28;20221;-70
2021/12/27 06:47:16;;;;;;;34.90;17.10;;;;;;;-3.70;75.27;100724.03;5052976;28;20200;-70
2021/12/27 06:49:42;;;;;;;36.63;18.37;;;;;;;-3.78;75.07;100735.97;5052572;28;20282;-70
2021/12/27 06:52:09;;;;;;;36.03;17.47;;;;;;;-3.73;75.76;100729.66;5052596;28;20209;-70
2021/12/27 06:54:34;;;;;;;36.03;18.17;;;;;;;-3.75;76.09;100730.31;5051403;28;20440;-70
2021/12/27 06:57:00;;;;;;;37.83;19.23;;;;;;;-3.76;75.95;100733.59;5052726;28;20424;-70
2021/12/27 06:59:29;;;;;;;36.07;18.30;;;;;;;-3.80;75.67;100732.50;5052364;28;20185;-70
2021/12/27 07:01:55;;;;;;;38.93;18.20;;;;;;;-3.73;76.27;100727.16;5052539;28;20208;-70
2021/12/27 07:04:21;;;;;;;33.93;17.93;;;;;;;-3.71;76.06;100718.16;5052389;28;20479;-70
2021/12/27 07:06:46;;;;;;;41.33;18.10;;;;;;;-3.75;76.09;100730.31;5052296;28;20201;-70
2021/12/27 07:09:12;;;;;;;38.27;18.70;;;;;;;-3.75;76.31;100725.31;5052278;28;20546;-70
2021/12/27 07:11:37;;;;;;;36.43;18.57;;;;;;;-3.75;76.14;100726.22;5052490;28;20342;-70
2021/12/27 07:14:03;;;;;;;35.33;17.43;;;;;;;-3.70;76.31;100717.41;5052458;28;20647;-70
2021/12/27 07:16:28;;;;;;;29.73;16.80;;;;;;;-3.70;75.70;100711.53;5052516;28;20185;-70
2021/12/27 07:18:54;;;;;;;36.10;18.47;;;;;;;-3.80;75.45;100719.13;5067767;28;20185;-70
2021/12/27 07:21:19;;;;;;;30.20;17.73;;;;;;;-3.75;76.18;100711.19;5052360;28;20210;-70
2021/12/27 07:23:45;;;;;;;41.87;18.57;;;;;;;-3.70;76.40;100714.91;5052391;28;20221;-70
2021/12/27 07:26:10;;;;;;;37.03;18.50;;;;;;;-3.74;76.63;100707.94;5052281;28;20658;-70
2021/12/27 07:28:35;;;;;;;39.83;19.20;;;;;;;-3.69;76.23;100711.63;5052090;28;20210;-70
2021/12/27 07:31:01;;;;;;;36.50;18.53;;;;;;;-3.65;76.61;100713.59;5052030;28;20201;-70
2021/12/27 07:33:26;;;;;;;37.90;19.13;;;;;;;-3.66;76.35;100719.38;5052067;28;20181;-70
2021/12/27 07:35:51;;;;;;;40.67;19.47;;;;;;;-3.67;76.71;100716.75;5051696;28;20197;-70
2021/12/27 07:38:17;;;;;;;37.40;17.80;;;;;;;-3.74;76.88;100712.94;5081700;28;20277;-70
2021/12/27 07:40:42;;;;;;;38.70;19.33;;;;;;;-3.69;76.70;100719.13;5071869;28;20193;-70
2021/12/27 07:43:08;;;;;;;41.27;20.03;;;;;;;-3.63;76.49;100724.56;5072156;28;20557;-70
2021/12/27 07:45:33;;;;;;;35.17;19.43;;;;;;;-3.66;76.95;100719.38;5071947;28;20649;-70
2021/12/27 07:47:59;;;;;;;38.73;18.73;;;;;;;-3.60;77.15;100727.31;5087493;28;20204;-70
2021/12/27 07:50:24;;;;;;;38.47;19.27;;;;;;;-3.62;76.60;100731.34;5071551;28;20262;-70
2021/12/27 07:52:51;;;;;;;40.17;19.83;;;;;;;-3.60;77.38;100722.31;5071621;28;20279;-70
2021/12/27 07:55:16;;;;;;;33.90;18.60;;;;;;;-3.56;77.92;100724.28;5056183;28;20228;-69
2021/12/27 07:57:42;;;;;;;42.53;20.83;;;;;;;-3.54;77.18;100727.75;5051610;28;20467;-71
2021/12/27 08:00:08;;;;;;;44.50;20.00;;;;;;;-3.53;77.36;100728.63;5051214;28;20194;-70
2021/12/27 08:02:38;;;;;;;36.03;20.13;;;;;;;-3.52;77.37;100723.75;5051445;28;20190;-71
2021/12/27 08:05:04;;;;;;;39.23;20.43;;;;;;;-3.27;78.20;100718.84;5033699;28;20904;-73
2021/12/27 08:07:30;;;;;;;44.33;20.00;;;;;;;-3.33;77.35;100725.91;5048837;28;20447;-72
2021/12/27 08:09:55;;;;;;;39.37;18.97;;;;;;;-3.35;77.56;100715.78;5049992;28;20543;-71
2021/12/27 08:12:20;;;;;;;41.20;20.30;;;;;;;-3.36;77.36;100705.69;5047688;28;20632;-71
2021/12/27 08:14:45;;;;;;;42.43;21.33;;;;;;;-3.34;77.69;100709.16;5047727;28;20692;-73
2021/12/27 08:17:11;;;;;;;40.37;20.57;;;;;;;-3.30;77.46;100708.63;5048997;28;20197;-71
2021/12/27 08:19:36;;;;;;;42.73;20.40;;;;;;;-3.26;77.67;100703.06;5050207;28;20182;-71
2021/12/27 08:22:02;;;;;;;41.90;19.63;;;;;;;-3.28;77.27;100695.44;5040090;28;20214;-71
2021/12/27 08:24:27;;;;;;;41.07;20.37;;;;;;;-3.15;77.42;100702.19;5050241;28;20240;-71
2021/12/27 08:26:54;;;;;;;45.97;20.80;;;;;;;-3.13;78.11;100706.53;5050481;28;20186;-73
2021/12/27 08:29:19;;;;;;;39.47;20.67;;;;;;;-3.13;77.52;100703.19;5050716;28;20190;-71
2021/12/27 08:31:44;;;;;;;38.97;20.87;;;;;;;-3.09;77.74;100698.47;5049060;28;20608;-72
2021/12/27 08:34:10;;;;;;;43.73;20.37;;;;;;;-3.04;77.28;100688.81;5050609;28;20271;-71
2021/12/27 08:36:35;;;;;;;40.07;19.43;;;;;;;-2.99;78.12;100692.50;5049309;28;20719;-72
2021/12/27 08:39:01;;;;;;;45.77;22.27;;;;;;;-2.98;77.08;100692.59;5050201;28;20632;-71
2021/12/27 08:41:28;;;;;;;38.20;19.93;;;;;;;-2.90;77.65;100693.13;5050519;28;20610;-72
2021/12/27 08:43:58;;;;;;;41.77;21.30;;;;;;;-3.05;77.41;100682.91;5065416;28;20221;-72
2021/12/27 08:46:24;;;;;;;41.80;21.30;;;;;;;-3.09;77.75;100683.47;5048973;28;20940;-72
2021/12/27 08:48:49;;;;;;;42.00;19.53;;;;;;;-3.10;77.91;100689.25;5050407;28;20413;-72
2021/12/27 08:51:14;;;;;;;45.07;21.60;;;;;;;-3.05;78.35;100694.56;5050310;28;20268;-73
2021/12/27 08:53:40;;;;;;;42.40;21.17;;;;;;;-3.00;77.87;100691.59;5050675;28;20198;-73
2021/12/27 08:56:06;;;;;;;42.70;21.57;;;;;;;-2.75;78.76;100684.16;5050592;28;20577;-71
2021/12/27 08:58:31;;;;;;;44.97;20.47;;;;;;;-2.20;79.17;100679.59;5050229;28;20556;-70
2021/12/27 09:00:57;;;;;;;42.53;21.07;;;;;;;-1.75;78.59;100692.63;5048732;28;20244;-70
2021/12/27 09:03:22;;;;;;;41.17;25.03;;;;;;;-2.27;75.52;100693.34;5049144;28;20424;-71
2021/12/27 09:05:48;;;;;;;41.10;22.17;;;;;;;-2.47;76.34;100700.28;5049772;28;20178;-71
2021/12/27 09:08:13;;;;;;;39.63;21.20;;;;;;;-2.65;77.24;100699.94;5031824;28;20672;-73
2021/12/27 09:10:38;;;;;;;41.13;20.73;;;;;;;-2.73;76.29;100708.53;5049803;28;20205;-72
2021/12/27 09:13:04;;;;;;;47.80;22.67;;;;;;;-2.57;76.61;100698.78;5049953;28;20201;-71
2021/12/27 09:15:30;;;;;;;43.00;20.87;;;;;;;-2.49;76.93;100695.19;5049546;28;20272;-71
2021/12/27 09:17:56;;;;;;;45.53;21.83;;;;;;;-2.48;76.74;100693.56;5048294;28;20236;-71
2021/12/27 09:20:24;;;;;;;42.87;22.53;;;;;;;-2.59;76.98;100686.94;5049468;28;20440;-71
2021/12/27 09:22:49;;;;;;;44.40;22.27;;;;;;;-2.55;77.11;100693.88;5049717;28;20213;-71
2021/12/27 09:25:15;;;;;;;44.70;22.17;;;;;;;-2.49;76.71;100695.19;5049606;28;20515;-70
2021/12/27 09:27:40;;;;;;;44.60;22.53;;;;;;;-2.42;77.77;100693.97;5049296;28;20267;-70
2021/12/27 09:30:06;;;;;;;46.43;21.67;;;;;;;-2.37;77.12;100686.00;5047813;28;20541;-71
2021/12/27 09:32:32;;;;;;;39.63;22.13;;;;;;;-2.31;77.55;100680.50;5048056;28;20188;-71
2021/12/27 09:34:57;;;;;;;44.43;21.83;;;;;;;-2.28;76.60;100676.56;5049287;28;20193;-70
2021/12/27 09:37:22;;;;;;;41.57;21.83;;;;;;;-2.28;76.75;100671.56;5049433;28;20216;-70
2021/12/27 09:39:53;;;;;;;42.83;21.03;;;;;;;-2.34;77.27;100666.13;5049246;28;20189;-71
2021/12/27 09:42:23;;;;;;;43.33;22.93;;;;;;;-2.35;77.42;100661.03;5048068;28;20580;-71
2021/12/27 09:44:49;;;;;;;41.87;22.27;;;;;;;-2.33;77.58;100677.03;5049332;28;20472;-70
2021/12/27 09:47:14;;;;;;;43.37;22.97;;;;;;;-2.41;77.49;100676.53;5048091;28;20440;-70
2021/12/27 09:49:40;;;;;;;44.93;22.30;;;;;;;-2.38;78.05;100680.88;5048997;28;20447;-70
2021/12/27 09:52:06;;;;;;;44.90;22.63;;;;;;;-2.37;77.87;100677.59;5049310;28;20236;-69
2021/12/27 09:54:31;;;;;;;45.03;23.40;;;;;;;-2.33;78.13;100664.50;5049194;28;20196;-71
2021/12/27 09:56:56;;;;;;;44.37;23.00;;;;;;;-2.31;77.75;100665.44;5048285;28;20286;-71
2021/12/27 09:59:23;;;;;;;49.77;23.90;;;;;;;-2.29;77.79;100664.78;5049045;28;20191;-71
2021/12/27 10:01:49;;;;;;;42.10;23.67;;;;;;;-2.28;78.26;100666.56;5060881;28;20276;-69
2021/12/27 10:04:14;;;;;;;44.87;23.77;;;;;;;-2.29;78.22;100661.44;5048653;28;20881;-70
2021/12/27 10:06:40;;;;;;;44.00;22.60;;;;;;;-2.32;78.35;100653.69;5064595;28;20264;-69
2021/12/27 10:09:06;;;;;;;50.77;24.87;;;;;;;-2.37;78.40;100650.03;5049338;28;20193;-70
2021/12/27 10:11:34;;;;;;;49.10;23.77;;;;;;;-2.36;78.64;100649.25;5049149;28;20205;-70
2021/12/27 10:14:02;;;;;;;41.80;23.43;;;;;;;-2.27;78.97;100650.75;5047127;28;20186;-70
2021/12/27 10:16:30;;;;;;;47.43;23.23;;;;;;;-2.23;78.94;100655.19;5048857;28;20439;-70
2021/12/27 10:18:58;;;;;;;43.17;24.80;;;;;;;-2.26;79.16;100641.59;5044813;28;20476;-72
2021/12/27 10:21:24;;;;;;;48.23;23.77;;;;;;;-2.19;78.92;100633.69;5030834;28;20484;-72
2021/12/27 10:24:07;;;;;;;45.67;24.50;;;;;;;-2.23;78.55;100627.63;5047852;28;21097;-71
2021/12/27 10:26:33;;;;;;;43.17;23.00;;;;;;;-2.23;78.32;100620.09;5048838;28;20428;-71
2021/12/27 10:29:11;;;;;;;44.90;23.60;;;;;;;-2.25;78.66;100620.75;5047501;28;20439;-71
2021/12/27 10:31:58;;;;;;;47.30;25.53;;;;;;;-2.23;78.77;100620.09;5048872;28;20456;-70
2021/12/27 10:34:38;;;;;;;45.33;23.37;;;;;;;-2.13;78.99;100619.03;5047988;28;20440;-75
2021/12/27 10:37:11;;;;;;;47.47;25.03;;;;;;;-2.06;78.91;100618.69;5047607;28;20448;-71
2021/12/27 10:39:44;;;;;;;45.77;24.37;;;;;;;-1.95;78.64;100611.06;5048738;28;20783;-75
2021/12/27 10:42:11;;;;;;;45.00;23.50;;;;;;;-1.98;78.34;100610.88;5048884;28;20533;-69
2021/12/27 10:44:37;;;;;;;50.40;24.73;;;;;;;-1.91;78.93;100610.50;5047379;28;20503;-74
2021/12/27 10:47:21;;;;;;;45.47;24.43;;;;;;;-1.85;78.57;100602.47;5047723;28;20478;-74
2021/12/27 10:49:47;;;;;;;51.97;25.23;;;;;;;-1.83;78.96;100599.31;5047771;28;20192;-75
2021/12/27 10:52:12;;;;;;;45.70;23.17;;;;;;;-1.75;78.76;100605.69;5063994;28;20980;-75
2021/12/27 10:54:38;;;;;;;47.17;24.90;;;;;;;-1.79;78.77;100601.22;5047525;28;20212;-73
2021/12/27 10:57:04;;;;;;;51.73;24.47;;;;;;;-1.80;78.97;100603.63;5048765;28;20193;-76
2021/12/27 10:59:29;;;;;;;44.93;23.63;;;;;;;-1.75;78.87;100607.34;5047115;28;20201;-73
2021/12/27 11:01:55;;;;;;;51.00;25.80;;;;;;;-1.73;78.75;100609.16;5048603;28;20451;-72
2021/12/27 11:04:20;;;;;;;49.97;24.17;;;;;;;-1.73;79.04;100605.78;5048391;28;20259;-73
2021/12/27 11:06:48;;;;;;;47.73;24.43;;;;;;;-1.78;79.30;100609.63;5047217;28;20281;-71
2021/12/27 11:09:14;;;;;;;47.40;24.60;;;;;;;-1.70;79.30;100614.38;5050843;28;20807;-71